Time;durP1;ratioP1;P1;durP2;ratioP2;P2;SDS_P1;SDS_P2;PMS_P1;PMS_P2;Temp;Humidity;BMP_temperature;BMP_pressure;BME280_temperature;BME280_humidity;BME280_pressure;Samples;Min_cycle;Max_cycle;Signal;HPM_P1;HPM_P2
2022/08/04 00:00:17;;;;;;;4.10;2.00;;;24.60;82.90;;;;;;7004811;28;20470;-84
2022/08/04 00:03:56;;;;;;;4.40;2.10;;;24.60;83.70;;;;;;6996566;28;20901;-85
2022/08/04 00:07:27;;;;;;;4.53;2.10;;;24.70;83.40;;;;;;6993664;28;20435;-82
2022/08/04 00:10:54;;;;;;;5.80;2.53;;;24.60;83.70;;;;;;6994942;28;20459;-85
2022/08/04 00:14:19;;;;;;;4.82;2.38;;;24.50;84.50;;;;;;6967780;28;20428;-86
2022/08/04 00:17:49;;;;;;;6.40;2.53;;;24.50;84.80;;;;;;6989563;28;20431;-85
2022/08/04 00:21:13;;;;;;;4.00;2.37;;;24.50;85.00;;;;;;7000457;28;20432;-86
2022/08/04 00:24:37;;;;;;;4.95;2.42;;;24.60;85.20;;;;;;7004329;28;20431;-86
2022/08/04 00:28:01;;;;;;;3.90;2.17;;;24.60;85.40;;;;;;7009843;28;20431;-85
2022/08/04 00:31:24;;;;;;;5.70;2.30;;;24.50;85.80;;;;;;7003591;28;20792;-84
2022/08/04 00:34:48;;;;;;;4.55;2.30;;;24.50;86.50;;;;;;7004135;28;20428;-85
2022/08/04 00:38:11;;;;;;;5.13;2.20;;;24.50;86.80;;;;;;7007506;28;20909;-86
2022/08/04 00:41:48;;;;;;;5.50;2.30;;;24.50;87.40;;;;;;7027814;28;20416;-82
2022/08/04 00:45:38;;;;;;;5.47;2.30;;;24.50;87.50;;;;;;7006741;28;20435;-84
2022/08/04 00:49:42;;;;;;;4.20;2.40;;;24.40;87.40;;;;;;7000785;28;20423;-84
2022/08/04 00:53:17;;;;;;;6.50;2.40;;;24.00;88.30;;;;;;6998773;28;20509;-85
2022/08/04 00:57:09;;;;;;;5.63;2.47;;;23.80;89.80;;;;;;6999263;28;20435;-86
2022/08/04 01:00:41;;;;;;;5.43;2.50;;;23.80;90.20;;;;;;6997976;28;20439;-85
2022/08/04 01:04:10;;;;;;;4.78;2.78;;;23.70;90.20;;;;;;7028152;28;20419;-83
2022/08/04 01:08:01;;;;;;;5.20;2.45;;;23.60;90.20;;;;;;7013184;28;20434;-83
2022/08/04 01:11:40;;;;;;;4.53;2.50;;;23.50;90.50;;;;;;6997616;28;20423;-84
2022/08/04 01:15:07;;;;;;;4.75;2.40;;;23.60;90.40;;;;;;6997235;28;20442;-84
2022/08/04 01:18:39;;;;;;;5.20;2.40;;;23.60;90.40;;;;;;6998569;28;20434;-84
2022/08/04 01:22:38;;;;;;;5.38;2.40;;;23.60;90.60;;;;;;6998810;28;20465;-85
2022/08/04 01:26:42;;;;;;;4.77;2.30;;;23.70;90.70;;;;;;6998226;28;20440;-85
2022/08/04 01:30:06;;;;;;;6.20;2.40;;;23.70;90.90;;;;;;6999071;28;20442;-85
2022/08/04 01:33:30;;;;;;;5.18;2.38;;;23.80;91.10;;;;;;6998149;28;20446;-85
2022/08/04 01:37:00;;;;;;;4.07;2.40;;;23.70;91.30;;;;;;6998359;28;20467;-85
2022/08/04 01:40:22;;;;;;;4.95;2.33;;;23.70;91.60;;;;;;6993677;28;20432;-85
2022/08/04 01:43:46;;;;;;;4.28;2.50;;;23.80;91.60;;;;;;7010704;28;20510;-86
2022/08/04 01:47:10;;;;;;;4.45;2.20;;;23.80;91.80;;;;;;7007570;28;20430;-85
2022/08/04 01:50:36;;;;;;;4.90;2.50;;;23.70;91.90;;;;;;6998311;28;20434;-84
2022/08/04 01:53:58;;;;;;;7.25;2.40;;;23.70;92.00;;;;;;6996051;28;20944;-84
2022/08/04 01:57:23;;;;;;;4.37;2.20;;;23.50;92.30;;;;;;6997187;28;20985;-83
2022/08/04 02:00:56;;;;;;;4.70;2.35;;;23.60;92.30;;;;;;6997367;28;20416;-86
2022/08/04 02:04:21;;;;;;;5.22;2.50;;;23.40;92.50;;;;;;6992133;28;20519;-84
2022/08/04 02:08:04;;;;;;;6.55;2.50;;;23.20;92.60;;;;;;6997253;28;20797;-84
2022/08/04 02:11:26;;;;;;;4.53;2.30;;;23.10;93.00;;;;;;6995800;28;21082;-84
2022/08/04 02:14:57;;;;;;;5.47;2.53;;;23.00;93.20;;;;;;6996433;28;20443;-84
2022/08/04 02:18:27;;;;;;;4.68;2.42;;;22.80;93.60;;;;;;6997205;28;20423;-84
2022/08/04 02:21:58;;;;;;;5.22;2.20;;;22.80;93.70;;;;;;6997418;28;20432;-86
2022/08/04 02:25:25;;;;;;;4.13;2.38;;;22.80;93.90;;;;;;6997278;28;20436;-84
2022/08/04 02:28:53;;;;;;;5.82;2.55;;;22.80;94.10;;;;;;6996528;28;20581;-87
2022/08/04 02:32:25;;;;;;;6.50;2.50;;;22.80;94.00;;;;;;6997366;28;20435;-85
2022/08/04 02:35:57;;;;;;;6.72;2.60;;;22.60;94.20;;;;;;6996420;28;20793;-85
2022/08/04 02:39:22;;;;;;;6.55;2.40;;;22.40;94.70;;;;;;6996768;28;20462;-85
2022/08/04 02:42:47;;;;;;;4.50;2.60;;;22.30;95.00;;;;;;6995679;28;20463;-83
2022/08/04 02:46:10;;;;;;;5.80;2.43;;;22.30;95.30;;;;;;6997229;28;20880;-88
2022/08/04 02:49:37;;;;;;;4.77;2.50;;;22.30;95.40;;;;;;6997455;28;20431;-88
2022/08/04 02:53:03;;;;;;;4.80;2.47;;;22.30;95.40;;;;;;7008139;28;20439;-87
2022/08/04 02:56:30;;;;;;;5.75;2.50;;;22.30;95.40;;;;;;7011131;28;20431;-87
2022/08/04 03:00:08;;;;;;;6.05;2.95;;;22.10;95.90;;;;;;6999024;28;20435;-86
2022/08/04 03:03:39;;;;;;;5.85;2.72;;;22.00;96.30;;;;;;6997328;28;20423;-86
2022/08/04 03:07:57;;;;;;;5.95;2.53;;;22.10;96.20;;;;;;6996894;28;20467;-88
2022/08/04 03:11:56;;;;;;;6.07;3.03;;;22.00;96.50;;;;;;6987530;28;20435;-86
2022/08/04 03:15:57;;;;;;;6.50;3.00;;;22.00;97.00;;;;;;6962057;28;20425;-86
2022/08/04 03:19:55;;;;;;;4.65;2.55;;;22.00;96.80;;;;;;6995421;28;20489;-85
2022/08/04 03:23:41;;;;;;;6.20;2.72;;;21.90;96.90;;;;;;6996204;28;20463;-84
2022/08/04 03:27:22;;;;;;;6.35;2.90;;;21.90;97.00;;;;;;6995394;28;20431;-86
2022/08/04 03:31:07;;;;;;;4.25;2.40;;;22.00;97.00;;;;;;6970282;28;20421;-89
2022/08/04 03:34:50;;;;;;;5.22;2.50;;;22.00;97.00;;;;;;7013069;28;20424;-88
2022/08/04 03:38:51;;;;;;;4.38;2.45;;;22.00;97.00;;;;;;7008777;28;20925;-86
2022/08/04 03:43:08;;;;;;;4.03;2.50;;;22.00;97.20;;;;;;6998280;28;20928;-88
2022/08/04 03:46:50;;;;;;;4.05;2.67;;;22.10;97.20;;;;;;6992356;28;20435;-88
2022/08/04 03:50:40;;;;;;;4.57;2.40;;;22.10;97.00;;;;;;6999041;28;20430;-87
2022/08/04 03:54:27;;;;;;;4.57;2.38;;;22.00;97.00;;;;;;7002745;28;20427;-89
2022/08/04 03:58:48;;;;;;;5.03;2.50;;;22.00;97.00;;;;;;7002122;28;20478;-88
2022/08/04 04:02:53;;;;;;;4.53;2.30;;;22.00;97.00;;;;;;7002160;28;20446;-79
2022/08/04 04:06:41;;;;;;;4.53;2.40;;;22.00;97.10;;;;;;6999913;28;20435;-78
2022/08/04 04:10:31;;;;;;;6.33;2.40;;;22.10;97.00;;;;;;6999858;28;20522;-79
2022/08/04 04:14:41;;;;;;;5.38;2.53;;;22.30;96.70;;;;;;7000067;28;20427;-77
2022/08/04 04:18:38;;;;;;;4.38;2.50;;;22.30;96.70;;;;;;6994146;28;20439;-79
2022/08/04 04:22:25;;;;;;;5.20;2.58;;;22.40;96.70;;;;;;7002315;28;20427;-81
2022/08/04 04:26:04;;;;;;;4.45;2.20;;;22.40;96.60;;;;;;7000705;28;20923;-77
2022/08/04 04:30:05;;;;;;;5.72;2.40;;;22.40;96.70;;;;;;6999867;28;20487;-78
2022/08/04 04:33:38;;;;;;;4.85;2.70;;;22.40;96.80;;;;;;6985885;28;20446;-76
2022/08/04 04:37:28;;;;;;;4.70;2.30;;;22.40;96.70;;;;;;6999194;28;20608;-77
2022/08/04 04:41:05;;;;;;;4.97;2.30;;;22.40;96.60;;;;;;6971930;28;20421;-78
2022/08/04 04:45:09;;;;;;;4.63;2.50;;;22.40;96.70;;;;;;6972182;28;20425;-78
2022/08/04 04:48:45;;;;;;;5.77;2.80;;;22.30;96.80;;;;;;6999334;28;20912;-77
2022/08/04 04:52:14;;;;;;;4.90;2.50;;;22.10;97.10;;;;;;6999018;28;20427;-80
2022/08/04 04:55:44;;;;;;;4.82;2.50;;;22.00;97.30;;;;;;6997939;28;20435;-78
2022/08/04 04:59:11;;;;;;;4.78;2.60;;;22.00;97.00;;;;;;6998814;28;20860;-77
2022/08/04 05:03:08;;;;;;;5.77;2.50;;;22.10;97.00;;;;;;6997038;28;20461;-78
2022/08/04 05:06:52;;;;;;;5.82;2.60;;;22.10;97.00;;;;;;6998949;28;20427;-77
2022/08/04 05:10:33;;;;;;;5.30;2.70;;;22.10;96.50;;;;;;6971118;28;20802;-78
2022/08/04 05:14:01;;;;;;;4.30;2.50;;;22.10;96.70;;;;;;6970836;28;20442;-79
2022/08/04 05:17:28;;;;;;;4.50;2.55;;;22.20;96.70;;;;;;6971117;28;20476;-78
2022/08/04 05:21:09;;;;;;;4.75;2.50;;;22.20;96.80;;;;;;6981440;28;20821;-77
2022/08/04 05:24:38;;;;;;;3.95;2.38;;;22.40;96.80;;;;;;6997170;28;20853;-78
2022/08/04 05:28:06;;;;;;;4.67;2.60;;;22.50;96.80;;;;;;6998456;28;20500;-77
2022/08/04 05:31:34;;;;;;;4.95;2.53;;;22.60;96.80;;;;;;6997891;28;20427;-81
2022/08/04 05:35:03;;;;;;;5.35;2.65;;;22.70;96.70;;;;;;6997751;28;20423;-81
2022/08/04 05:38:31;;;;;;;6.00;2.50;;;22.70;96.60;;;;;;6997825;28;20435;-81
2022/08/04 05:41:55;;;;;;;7.15;2.70;;;22.80;96.60;;;;;;6997472;28;20428;-78
2022/08/04 05:45:18;;;;;;;5.30;2.60;;;22.80;97.10;;;;;;6997757;28;20982;-80
2022/08/04 05:48:41;;;;;;;4.63;2.70;;;22.80;97.30;;;;;;6997829;28;20785;-84
2022/08/04 05:52:05;;;;;;;5.90;2.70;;;22.80;97.10;;;;;;6998030;28;20805;-85
2022/08/04 05:55:30;;;;;;;7.70;3.08;;;22.80;97.40;;;;;;6997454;28;20436;-80
2022/08/04 05:58:53;;;;;;;5.93;2.72;;;22.70;96.60;;;;;;6997676;28;20550;-83
2022/08/04 06:02:17;;;;;;;5.13;3.00;;;22.30;96.80;;;;;;6997672;28;20446;-83
2022/08/04 06:05:42;;;;;;;4.90;2.70;;;22.40;97.00;;;;;;6997318;28;20423;-85
2022/08/04 06:09:04;;;;;;;6.72;3.20;;;22.50;97.60;;;;;;6997707;28;20423;-83
2022/08/04 06:12:37;;;;;;;6.07;2.80;;;22.60;96.80;;;;;;6979337;28;20928;-82
2022/08/04 06:16:01;;;;;;;6.43;2.80;;;22.60;96.60;;;;;;6997240;28;20472;-83
2022/08/04 06:19:27;;;;;;;4.35;2.72;;;22.60;96.30;;;;;;6997756;28;20964;-84
2022/08/04 06:22:54;;;;;;;5.73;2.80;;;22.70;96.70;;;;;;6997090;28;20427;-84
2022/08/04 06:26:18;;;;;;;4.80;2.30;;;22.70;96.10;;;;;;6999738;28;20431;-87
2022/08/04 06:29:43;;;;;;;4.80;2.63;;;22.70;96.20;;;;;;6979533;28;20427;-84
2022/08/04 06:33:23;;;;;;;5.43;2.60;;;22.80;95.90;;;;;;6996892;28;20435;-82
2022/08/04 06:36:47;;;;;;;5.25;2.60;;;23.00;96.30;;;;;;6997320;28;20500;-83
2022/08/04 06:40:11;;;;;;;4.93;2.50;;;23.10;95.40;;;;;;6992455;28;20480;-79
2022/08/04 06:43:33;;;;;;;4.50;2.43;;;23.20;95.60;;;;;;6992794;28;20794;-80
2022/08/04 06:47:00;;;;;;;4.38;2.45;;;23.30;95.40;;;;;;6992160;28;20927;-80
2022/08/04 06:50:23;;;;;;;4.78;2.25;;;23.40;94.70;;;;;;6992779;28;20466;-79
2022/08/04 06:53:45;;;;;;;4.80;2.50;;;23.50;94.70;;;;;;6993116;28;20456;-79
2022/08/04 06:57:07;;;;;;;3.70;2.20;;;23.60;94.20;;;;;;6991154;28;20443;-81
2022/08/04 07:00:31;;;;;;;5.30;2.20;;;23.60;94.20;;;;;;6993744;28;20442;-81
2022/08/04 07:03:55;;;;;;;4.88;2.17;;;23.70;94.40;;;;;;6993268;28;20439;-81
2022/08/04 07:07:17;;;;;;;4.27;2.10;;;23.80;93.50;;;;;;6992783;28;20928;-82
2022/08/04 07:10:40;;;;;;;5.23;2.13;;;23.80;93.60;;;;;;6992641;28;20443;-82
2022/08/04 07:14:04;;;;;;;3.95;2.00;;;24.00;93.00;;;;;;6992677;28;20931;-83
2022/08/04 07:17:29;;;;;;;6.07;2.10;;;24.00;93.00;;;;;;6993259;28;20486;-78
2022/08/04 07:20:52;;;;;;;4.67;2.00;;;24.00;92.90;;;;;;6992808;28;20431;-79
2022/08/04 07:24:16;;;;;;;4.60;2.00;;;24.10;92.40;;;;;;6992211;28;20431;-78
2022/08/04 07:27:38;;;;;;;5.13;2.00;;;24.20;91.70;;;;;;6996699;28;20487;-78
2022/08/04 07:31:02;;;;;;;4.90;2.10;;;24.40;91.60;;;;;;6997523;28;20431;-77
2022/08/04 07:34:25;;;;;;;4.72;2.00;;;24.50;91.30;;;;;;6996932;28;20436;-78
2022/08/04 07:37:48;;;;;;;5.03;1.92;;;24.60;91.00;;;;;;7002788;28;20450;-78
2022/08/04 07:41:11;;;;;;;3.70;1.90;;;24.60;91.20;;;;;;7001190;28;20433;-77
2022/08/04 07:44:34;;;;;;;4.70;2.20;;;24.80;91.60;;;;;;6997409;28;20470;-77
2022/08/04 07:47:57;;;;;;;4.20;1.90;;;24.80;91.40;;;;;;6997268;28;20568;-78
2022/08/04 07:51:19;;;;;;;4.10;2.30;;;24.80;90.80;;;;;;6996777;28;20423;-78
2022/08/04 07:54:43;;;;;;;5.83;2.30;;;24.90;91.00;;;;;;6997029;28;20596;-79
2022/08/04 07:58:05;;;;;;;5.68;2.20;;;25.00;91.30;;;;;;6995548;28;20995;-78
2022/08/04 08:01:28;;;;;;;5.10;2.42;;;25.00;91.30;;;;;;6997954;28;20940;-85
2022/08/04 08:04:50;;;;;;;4.65;2.40;;;25.00;91.50;;;;;;6997444;28;20774;-81
2022/08/04 08:08:13;;;;;;;6.30;2.50;;;25.10;91.30;;;;;;6996888;28;20470;-78
2022/08/04 08:11:38;;;;;;;4.70;2.50;;;25.00;90.90;;;;;;6994550;28;20450;-80
2022/08/04 08:15:01;;;;;;;4.85;2.28;;;25.10;90.90;;;;;;6969772;28;20856;-81
2022/08/04 08:18:24;;;;;;;7.70;2.47;;;25.10;90.80;;;;;;6969288;28;20448;-80
2022/08/04 08:21:48;;;;;;;4.80;2.30;;;25.10;90.50;;;;;;6968560;28;20436;-80
2022/08/04 08:25:12;;;;;;;6.53;2.30;;;25.20;90.30;;;;;;6995164;28;20973;-77
2022/08/04 08:28:35;;;;;;;5.10;2.30;;;25.30;90.10;;;;;;6995625;28;20427;-76
2022/08/04 08:31:57;;;;;;;7.68;2.53;;;25.40;89.40;;;;;;6995730;28;20439;-79
2022/08/04 08:35:21;;;;;;;4.75;2.42;;;25.40;88.70;;;;;;6995753;28;20470;-79
2022/08/04 08:38:52;;;;;;;4.60;2.60;;;25.60;88.70;;;;;;6994326;28;20446;-79
2022/08/04 08:42:46;;;;;;;4.90;2.45;;;25.60;89.60;;;;;;6994965;28;20423;-81
2022/08/04 08:46:47;;;;;;;5.43;2.10;;;25.70;89.20;;;;;;6995462;28;20943;-86
2022/08/04 08:50:51;;;;;;;6.47;2.20;;;25.90;90.10;;;;;;6998326;28;20542;-79
2022/08/04 08:54:52;;;;;;;7.67;2.40;;;25.90;88.40;;;;;;6970253;28;20433;-79
2022/08/04 08:58:35;;;;;;;4.82;2.35;;;26.00;88.30;;;;;;6985925;28;20977;-76
2022/08/04 09:02:28;;;;;;;4.00;2.38;;;26.10;87.60;;;;;;6996143;28;20447;-77
2022/08/04 09:06:31;;;;;;;5.82;2.58;;;26.10;88.80;;;;;;6995845;28;20451;-77
2022/08/04 09:10:14;;;;;;;5.15;2.50;;;26.20;88.50;;;;;;6975915;28;20428;-77
2022/08/04 09:13:44;;;;;;;5.53;2.58;;;26.20;88.70;;;;;;6995246;28;20427;-78
2022/08/04 09:17:21;;;;;;;4.73;2.60;;;26.30;89.50;;;;;;6994776;28;21019;-80
2022/08/04 09:20:49;;;;;;;6.90;2.60;;;26.30;89.60;;;;;;6995590;28;20434;-77
2022/08/04 09:24:18;;;;;;;6.88;2.60;;;26.40;89.30;;;;;;6995062;28;20801;-76
2022/08/04 09:27:50;;;;;;;9.13;2.97;;;26.50;89.70;;;;;;6994812;28;20466;-80
2022/08/04 09:31:17;;;;;;;9.27;2.60;;;26.60;89.80;;;;;;6994084;28;20897;-77
2022/08/04 09:34:51;;;;;;;6.10;2.50;;;26.80;88.40;;;;;;6993201;28;20485;-78
2022/08/04 09:38:21;;;;;;;6.78;2.30;;;26.90;86.80;;;;;;6993870;28;20493;-79
2022/08/04 09:41:56;;;;;;;5.10;2.53;;;27.10;85.90;;;;;;6993539;28;20434;-78
2022/08/04 09:45:38;;;;;;;5.28;2.50;;;27.30;84.80;;;;;;6993733;28;20431;-77
2022/08/04 09:49:07;;;;;;;5.78;2.58;;;27.20;85.30;;;;;;6993148;28;20442;-78
2022/08/04 09:52:46;;;;;;;5.25;2.20;;;27.30;83.60;;;;;;6993149;28;20901;-77
2022/08/04 09:56:14;;;;;;;6.65;2.33;;;27.50;81.90;;;;;;6991547;28;20492;-79
2022/08/04 09:59:46;;;;;;;5.78;2.33;;;27.80;79.60;;;;;;6993838;28;20870;-79
2022/08/04 10:03:12;;;;;;;5.50;2.45;;;27.90;79.00;;;;;;6992902;28;20470;-79
2022/08/04 10:07:29;;;;;;;7.28;3.05;;;28.00;78.30;;;;;;6993370;28;20935;-78
2022/08/04 10:11:04;;;;;;;5.93;2.00;;;28.00;74.00;;;;;;6970091;28;20920;-80
2022/08/04 10:14:40;;;;;;;8.05;2.30;;;28.20;73.70;;;;;;6992848;28;20454;-78
2022/08/04 10:18:22;;;;;;;5.43;2.17;;;28.50;71.50;;;;;;6992877;28;20475;-80
2022/08/04 10:21:59;;;;;;;5.95;2.20;;;28.70;72.10;;;;;;6992590;28;20434;-78
2022/08/04 10:25:34;;;;;;;5.75;2.40;;;28.80;71.70;;;;;;6992799;28;20510;-79
2022/08/04 10:29:04;;;;;;;4.50;2.20;;;28.70;71.30;;;;;;6992401;28;20495;-79
2022/08/04 10:32:33;;;;;;;4.47;2.15;;;28.80;69.50;;;;;;6992198;28;20428;-78
2022/08/04 10:36:03;;;;;;;4.65;2.28;;;28.90;69.30;;;;;;6992291;28;20470;-77
2022/08/04 10:39:33;;;;;;;4.45;2.10;;;29.20;68.70;;;;;;6992016;28;20444;-78
2022/08/04 10:43:01;;;;;;;4.27;2.10;;;29.30;67.70;;;;;;6992204;28;20431;-79
2022/08/04 10:46:29;;;;;;;3.60;1.90;;;29.40;67.10;;;;;;6992049;28;20423;-78
2022/08/04 10:50:00;;;;;;;5.05;1.90;;;29.50;66.50;;;;;;6992249;28;20442;-78
2022/08/04 10:53:25;;;;;;;5.13;1.80;;;29.70;65.20;;;;;;6992159;28;20917;-76
2022/08/04 10:56:54;;;;;;;4.10;1.60;;;29.80;62.70;;;;;;6990342;28;20467;-78
2022/08/04 11:00:24;;;;;;;3.30;1.50;;;29.80;59.30;;;;;;6991797;28;20939;-77
2022/08/04 11:03:56;;;;;;;3.35;1.83;;;29.80;57.70;;;;;;6992235;28;20478;-78
2022/08/04 11:07:19;;;;;;;4.25;1.90;;;30.10;57.20;;;;;;6992237;28;20463;-76
2022/08/04 11:10:47;;;;;;;3.45;1.77;;;30.10;59.00;;;;;;6992321;28;20952;-77
2022/08/04 11:14:14;;;;;;;3.35;1.80;;;30.10;57.40;;;;;;6992630;28;20432;-78
2022/08/04 11:17:41;;;;;;;10.40;7.13;;;30.30;56.40;;;;;;6992449;28;20707;-79
2022/08/04 11:21:13;;;;;;;3.88;1.70;;;30.30;55.40;;;;;;6993169;28;20466;-77
2022/08/04 11:24:44;;;;;;;4.60;1.50;;;30.30;54.40;;;;;;6992157;28;20432;-79
2022/08/04 11:28:16;;;;;;;4.10;1.60;;;30.40;53.30;;;;;;6992182;28;20520;-78
2022/08/04 11:31:43;;;;;;;2.97;1.50;;;30.50;54.00;;;;;;6992762;28;20455;-77
2022/08/04 11:35:10;;;;;;;4.32;1.75;;;30.60;53.10;;;;;;6991821;28;20424;-77
2022/08/04 11:38:46;;;;;;;2.58;1.48;;;30.60;52.50;;;;;;6991779;28;20462;-77
2022/08/04 11:42:18;;;;;;;4.07;1.90;;;31.00;53.00;;;;;;6992592;28;20430;-78
2022/08/04 11:45:49;;;;;;;4.10;1.70;;;31.30;51.30;;;;;;6992154;28;20490;-77
2022/08/04 11:49:16;;;;;;;3.75;1.70;;;31.30;51.10;;;;;;6991742;28;20442;-77
2022/08/04 11:52:43;;;;;;;3.30;1.63;;;31.60;52.30;;;;;;6991633;28;20451;-79
2022/08/04 11:56:12;;;;;;;3.50;1.67;;;31.80;52.40;;;;;;6991321;28;20431;-77
2022/08/04 11:59:36;;;;;;;4.30;1.77;;;31.80;52.30;;;;;;6991504;28;20482;-77
2022/08/04 12:03:15;;;;;;;4.25;1.60;;;31.90;51.90;;;;;;6991608;28;20427;-78
2022/08/04 12:06:48;;;;;;;2.92;1.80;;;32.00;51.30;;;;;;6992459;28;20896;-77
2022/08/04 12:10:23;;;;;;;3.45;1.60;;;32.30;52.30;;;;;;6993534;28;20555;-77
2022/08/04 12:14:04;;;;;;;4.13;1.80;;;32.40;52.30;;;;;;6996931;28;20435;-77
2022/08/04 12:17:33;;;;;;;4.03;2.00;;;32.60;52.90;;;;;;6982575;28;20427;-78
2022/08/04 12:21:00;;;;;;;3.20;1.83;;;32.70;51.80;;;;;;6996617;28;20434;-79
2022/08/04 12:24:28;;;;;;;5.05;1.90;;;32.70;50.80;;;;;;6995756;28;20428;-77
2022/08/04 12:27:55;;;;;;;3.40;1.60;;;32.70;50.90;;;;;;6996460;28;20948;-78
2022/08/04 12:31:26;;;;;;;3.80;1.73;;;32.90;51.50;;;;;;6995850;28;20462;-77
2022/08/04 12:34:58;;;;;;;3.80;1.60;;;33.10;51.10;;;;;;6996148;28;20427;-78
2022/08/04 12:38:23;;;;;;;4.70;1.80;;;33.10;50.50;;;;;;6995463;28;20930;-77
2022/08/04 12:41:55;;;;;;;3.35;1.80;;;33.20;49.70;;;;;;6996007;28;20458;-77
2022/08/04 12:45:19;;;;;;;5.43;1.80;;;33.40;50.60;;;;;;6995928;28;20436;-78
2022/08/04 12:48:47;;;;;;;4.97;1.87;;;33.60;50.80;;;;;;6995598;28;20462;-77
2022/08/04 12:52:10;;;;;;;4.80;1.95;;;33.60;49.40;;;;;;6995060;28;20523;-77
2022/08/04 12:55:35;;;;;;;4.38;1.80;;;33.70;49.80;;;;;;6995397;28;20907;-77
2022/08/04 12:59:03;;;;;;;3.17;1.85;;;33.90;49.80;;;;;;6993195;28;20909;-77
2022/08/04 13:02:30;;;;;;;3.80;1.80;;;33.90;48.90;;;;;;6995138;28;20435;-78
2022/08/04 13:05:55;;;;;;;4.40;1.80;;;34.10;49.70;;;;;;6995146;28;20463;-79
2022/08/04 13:09:21;;;;;;;3.42;1.90;;;34.30;49.50;;;;;;6995449;28;20800;-77
2022/08/04 13:12:53;;;;;;;2.83;1.67;;;34.30;49.20;;;;;;6995341;28;20419;-78
2022/08/04 13:16:16;;;;;;;3.20;1.80;;;34.50;49.30;;;;;;6967660;28;20945;-77
2022/08/04 13:19:39;;;;;;;4.28;1.90;;;34.40;47.30;;;;;;6967813;28;20449;-76
2022/08/04 13:23:07;;;;;;;5.80;2.35;;;34.60;50.00;;;;;;6994116;28;20459;-77
2022/08/04 13:26:30;;;;;;;4.57;1.90;;;34.60;48.70;;;;;;6994128;28;20429;-77
2022/08/04 13:29:56;;;;;;;3.65;1.88;;;34.60;47.40;;;;;;6994301;28;20536;-77
2022/08/04 13:33:19;;;;;;;4.13;1.90;;;34.70;47.60;;;;;;6994521;28;20466;-76
2022/08/04 13:36:43;;;;;;;5.27;3.10;;;35.10;48.50;;;;;;6994469;28;20428;-77
2022/08/04 13:40:15;;;;;;;5.60;3.00;;;35.20;48.00;;;;;;6993978;28;20467;-77
2022/08/04 13:43:44;;;;;;;5.28;3.70;;;35.50;48.20;;;;;;6994664;28;21294;-77
2022/08/04 13:47:10;;;;;;;3.77;1.70;;;35.50;47.80;;;;;;6993494;28;20466;-78
2022/08/04 13:50:34;;;;;;;3.65;1.70;;;35.60;47.70;;;;;;6988891;28;20610;-80
2022/08/04 13:53:58;;;;;;;4.43;1.73;;;35.70;47.00;;;;;;6967421;28;20465;-82
2022/08/04 13:57:28;;;;;;;3.70;1.73;;;35.80;47.20;;;;;;6964193;28;20436;-79
2022/08/04 14:00:59;;;;;;;4.50;1.80;;;35.70;46.80;;;;;;6987138;28;20447;-79
2022/08/04 14:04:25;;;;;;;4.10;1.80;;;35.80;45.90;;;;;;6987300;28;20944;-80
2022/08/04 14:07:56;;;;;;;4.57;1.90;;;35.80;46.10;;;;;;6991381;28;20813;-79
2022/08/04 14:11:22;;;;;;;3.10;1.73;;;36.00;46.50;;;;;;6994131;28;20466;-79
2022/08/04 14:14:49;;;;;;;4.85;1.80;;;36.00;45.90;;;;;;6993225;28;20438;-78
2022/08/04 14:18:23;;;;;;;4.27;1.80;;;35.70;47.20;;;;;;6991607;28;20891;-78
2022/08/04 14:21:46;;;;;;;3.75;2.10;;;35.90;46.50;;;;;;6991175;28;20960;-78
2022/08/04 14:25:11;;;;;;;5.55;3.63;;;36.10;46.40;;;;;;6992542;28;20431;-79
2022/08/04 14:28:33;;;;;;;3.88;2.10;;;36.20;45.90;;;;;;6991812;28;20955;-81
2022/08/04 14:32:04;;;;;;;3.50;2.00;;;36.30;45.60;;;;;;6998191;28;20477;-78
2022/08/04 14:35:27;;;;;;;5.18;1.80;;;36.10;45.00;;;;;;6990507;28;20477;-81
2022/08/04 14:38:53;;;;;;;3.90;1.80;;;36.30;45.90;;;;;;6990443;28;20478;-82
2022/08/04 14:42:16;;;;;;;3.90;1.80;;;36.50;45.90;;;;;;6992495;28;20438;-82
2022/08/04 14:45:41;;;;;;;4.07;1.80;;;36.50;44.60;;;;;;6992739;28;21030;-81
2022/08/04 14:49:10;;;;;;;3.35;1.70;;;36.40;45.10;;;;;;6992384;28;20982;-81
2022/08/04 14:52:33;;;;;;;5.33;1.80;;;36.60;46.10;;;;;;6992626;28;20956;-82
2022/08/04 14:55:58;;;;;;;4.65;1.85;;;36.70;45.40;;;;;;6991227;28;20504;-81
2022/08/04 14:59:20;;;;;;;3.50;1.90;;;36.80;45.30;;;;;;6990861;28;20923;-81
2022/08/04 15:02:43;;;;;;;4.35;1.80;;;36.80;44.90;;;;;;6992368;28;20474;-82
2022/08/04 15:06:07;;;;;;;4.65;1.90;;;36.90;45.40;;;;;;6996182;28;20534;-80
2022/08/04 15:09:29;;;;;;;4.28;2.10;;;37.00;44.60;;;;;;6990336;28;20477;-81
2022/08/04 15:12:51;;;;;;;4.78;1.95;;;37.00;45.10;;;;;;6991229;28;20466;-80
2022/08/04 15:16:15;;;;;;;4.80;2.00;;;37.10;44.40;;;;;;6991697;28;20438;-80
2022/08/04 15:19:37;;;;;;;3.85;1.80;;;36.90;43.80;;;;;;6991175;28;20435;-81
2022/08/04 15:23:02;;;;;;;5.32;1.90;;;37.00;44.50;;;;;;6991434;28;20466;-80
2022/08/04 15:26:31;;;;;;;4.88;1.90;;;37.10;45.00;;;;;;6985793;28;20431;-82
2022/08/04 15:29:58;;;;;;;3.83;2.00;;;37.00;43.50;;;;;;6991353;28;20427;-82
2022/08/04 15:33:23;;;;;;;4.43;1.90;;;37.20;44.20;;;;;;6991144;28;21050;-82
2022/08/04 15:36:53;;;;;;;4.25;1.90;;;37.20;44.00;;;;;;6992541;28;20424;-84
2022/08/04 15:40:22;;;;;;;4.55;2.00;;;37.10;44.20;;;;;;6991324;28;20527;-81
2022/08/04 15:43:58;;;;;;;4.15;1.90;;;37.30;45.10;;;;;;6992020;28;20423;-80
2022/08/04 15:47:21;;;;;;;4.15;2.05;;;37.40;44.80;;;;;;6993965;28;20458;-82
2022/08/04 15:51:09;;;;;;;4.25;1.90;;;37.30;44.40;;;;;;6996031;28;20474;-80
2022/08/04 15:54:31;;;;;;;4.95;2.10;;;37.40;43.80;;;;;;6996206;28;20454;-80
2022/08/04 15:58:05;;;;;;;3.55;1.92;;;37.40;44.40;;;;;;6995680;28;20832;-82
2022/08/04 16:01:27;;;;;;;4.05;1.80;;;37.50;44.50;;;;;;6995770;28;20444;-78
2022/08/04 16:05:29;;;;;;;3.67;2.00;;;37.60;43.80;;;;;;6997666;28;20602;-86
2022/08/04 16:09:00;;;;;;;5.07;1.80;;;37.50;44.00;;;;;;6998232;28;20910;-86
2022/08/04 16:12:56;;;;;;;4.20;1.90;;;37.50;44.10;;;;;;6970937;28;20421;-89
2022/08/04 16:16:29;;;;;;;3.63;1.83;;;37.60;44.70;;;;;;7001113;28;20423;-92
2022/08/04 16:20:10;;;;;;;6.47;3.40;;;37.60;44.20;;;;;;6986199;28;20439;-86
2022/08/04 16:24:09;;;;;;;5.72;3.20;;;37.70;43.90;;;;;;6996516;28;20463;-89
2022/08/04 16:27:41;;;;;;;5.25;2.10;;;38.00;43.40;;;;;;6993903;28;20554;-88
2022/08/04 16:31:05;;;;;;;3.78;1.98;;;38.30;43.30;;;;;;6998105;28;20480;-88
2022/08/04 16:34:29;;;;;;;4.20;1.80;;;38.40;43.20;;;;;;6993754;28;20467;-88
2022/08/04 16:37:55;;;;;;;4.40;2.20;;;38.30;44.10;;;;;;6997774;28;20806;-88
2022/08/04 16:41:38;;;;;;;4.40;2.10;;;38.00;44.20;;;;;;6997024;28;20439;-87
2022/08/04 16:45:11;;;;;;;4.60;2.00;;;37.80;43.90;;;;;;7010808;28;20424;-88
2022/08/04 16:48:34;;;;;;;4.72;1.90;;;37.90;43.90;;;;;;7004224;28;20461;-89
2022/08/04 16:52:02;;;;;;;3.38;1.88;;;38.00;44.50;;;;;;7004295;28;20432;-91
2022/08/04 16:55:28;;;;;;;4.30;2.03;;;37.90;44.40;;;;;;6999925;28;20454;-89
2022/08/04 16:58:50;;;;;;;3.90;2.20;;;37.90;44.50;;;;;;6988336;28;20471;-89
2022/08/04 17:02:12;;;;;;;5.63;2.08;;;38.00;45.30;;;;;;6999388;28;20428;-89
2022/08/04 17:05:36;;;;;;;4.00;1.97;;;37.90;44.50;;;;;;6981804;28;20431;-86
2022/08/04 17:09:06;;;;;;;4.20;2.05;;;37.80;44.50;;;;;;7008242;28;20447;-86
2022/08/04 17:12:29;;;;;;;5.43;2.10;;;37.80;46.00;;;;;;7004016;28;20427;-89
2022/08/04 17:15:54;;;;;;;6.78;3.70;;;37.90;45.30;;;;;;7006415;28;20492;-87
2022/08/04 17:19:16;;;;;;;9.15;6.38;;;37.90;45.60;;;;;;7005340;28;20443;-89
2022/08/04 17:22:38;;;;;;;9.15;7.90;;;37.90;45.90;;;;;;7002412;28;20427;-88
2022/08/04 17:26:07;;;;;;;4.90;3.30;;;37.90;46.50;;;;;;7001256;28;20431;-89
2022/08/04 17:29:29;;;;;;;3.80;2.30;;;37.90;46.90;;;;;;7003546;28;20431;-88
2022/08/04 17:32:51;;;;;;;3.80;2.20;;;37.80;47.10;;;;;;6999494;28;20432;-89
2022/08/04 17:36:15;;;;;;;4.10;2.03;;;37.80;46.60;;;;;;7001085;28;20431;-90
2022/08/04 17:39:37;;;;;;;5.50;2.10;;;37.80;47.20;;;;;;7006401;28;20442;-89
2022/08/04 17:43:05;;;;;;;5.55;2.38;;;37.80;46.20;;;;;;7003490;28;20423;-89
2022/08/04 17:46:35;;;;;;;4.95;2.20;;;37.50;47.40;;;;;;6997636;28;20522;-90
2022/08/04 17:50:07;;;;;;;5.15;2.30;;;37.60;47.40;;;;;;6979957;28;20864;-91
2022/08/04 17:53:33;;;;;;;5.45;2.13;;;37.40;48.20;;;;;;6994164;28;20498;-87
2022/08/04 17:56:58;;;;;;;3.90;2.10;;;37.50;48.30;;;;;;6991571;28;20466;-80
2022/08/04 18:00:21;;;;;;;5.05;2.30;;;37.30;48.60;;;;;;6992852;28;20439;-81
2022/08/04 18:03:43;;;;;;;3.85;2.20;;;37.20;49.40;;;;;;6992948;28;20482;-82
2022/08/04 18:07:10;;;;;;;4.22;1.90;;;37.00;50.00;;;;;;6993324;28;20524;-83
2022/08/04 18:10:39;;;;;;;3.97;1.98;;;37.00;51.00;;;;;;6991487;28;20809;-83
2022/08/04 18:14:01;;;;;;;3.90;2.00;;;37.10;51.00;;;;;;6991430;28;20500;-82
2022/08/04 18:17:35;;;;;;;4.07;2.00;;;37.00;50.90;;;;;;6988908;28;20427;-81
2022/08/04 18:20:59;;;;;;;3.63;2.00;;;36.80;51.30;;;;;;6983395;28;20439;-80